Time;durP1;ratioP1;P1;durP2;ratioP2;P2;SDS_P1;SDS_P2;PMS_P1;PMS_P2;Temp;Humidity;BMP_temperature;BMP_pressure;BME280_temperature;BME280_humidity;BME280_pressure;Samples;Min_cycle;Max_cycle;Signal;HPM_P1;HPM_P2
2023/07/25 00:00:37;;;;;;;2.15;1.52;;;;;;;;;;5043904;28;20419;-92
2023/07/25 00:03:03;;;;;;;3.63;1.85;;;;;;;;;;5044034;28;20038;-91
2023/07/25 00:05:28;;;;;;;3.55;1.75;;;;;;;;;;5050148;28;20033;-91
2023/07/25 00:07:55;;;;;;;4.57;1.80;;;;;;;;;;5043016;28;20414;-92
2023/07/25 00:10:21;;;;;;;3.42;1.83;;;;;;;;;;5032911;28;20104;-92
2023/07/25 00:12:52;;;;;;;2.88;1.63;;;;;;;;;;5032773;28;20072;-92
2023/07/25 00:15:18;;;;;;;2.92;1.40;;;;;;;;;;5030583;28;20124;-92
2023/07/25 00:17:44;;;;;;;3.30;1.75;;;;;;;;;;5045183;28;20496;-93
2023/07/25 00:20:11;;;;;;;2.47;1.88;;;;;;;;;;5033367;28;20029;-93
2023/07/25 00:22:37;;;;;;;2.78;1.63;;;;;;;;;;5015368;28;20228;-92
2023/07/25 00:25:03;;;;;;;3.13;1.98;;;;;;;;;;5015751;28;20046;-92
2023/07/25 00:27:29;;;;;;;4.88;1.83;;;;;;;;;;5015226;28;20044;-92
2023/07/25 00:29:55;;;;;;;4.20;2.17;;;;;;;;;;5032809;28;20036;-93
2023/07/25 00:32:21;;;;;;;5.07;1.88;;;;;;;;;;5044950;28;20068;-94
2023/07/25 00:34:50;;;;;;;4.45;1.90;;;;;;;;;;5033751;28;20041;-92
2023/07/25 00:37:16;;;;;;;5.10;1.88;;;;;;;;;;5030772;28;20033;-93
2023/07/25 00:39:42;;;;;;;2.42;1.40;;;;;;;;;;5033400;28;20168;-92
2023/07/25 00:42:08;;;;;;;4.18;1.85;;;;;;;;;;5033617;28;20141;-93
2023/07/25 00:44:34;;;;;;;3.08;1.70;;;;;;;;;;5015422;28;20044;-93
2023/07/25 00:47:00;;;;;;;4.28;2.03;;;;;;;;;;5016152;28;20168;-94
2023/07/25 00:49:26;;;;;;;4.40;1.67;;;;;;;;;;5033467;28;20042;-93
2023/07/25 00:51:52;;;;;;;4.97;1.58;;;;;;;;;;5015654;28;20056;-93
2023/07/25 00:54:18;;;;;;;3.97;2.00;;;;;;;;;;5036381;28;20124;-92
2023/07/25 00:56:44;;;;;;;3.90;1.75;;;;;;;;;;5016130;28;20045;-92
2023/07/25 00:59:10;;;;;;;1.77;1.67;;;;;;;;;;5034579;28;20045;-93
2023/07/25 01:01:37;;;;;;;2.70;1.88;;;;;;;;;;5031976;28;20054;-93
2023/07/25 01:04:03;;;;;;;3.22;1.60;;;;;;;;;;5016505;28;20049;-93
2023/07/25 01:06:30;;;;;;;2.95;1.85;;;;;;;;;;5019615;28;20052;-94
2023/07/25 01:08:56;;;;;;;2.85;1.88;;;;;;;;;;5017657;28;20128;-93
2023/07/25 01:11:23;;;;;;;2.90;2.03;;;;;;;;;;5037074;28;20041;-92
2023/07/25 01:13:50;;;;;;;2.83;2.28;;;;;;;;;;5051036;28;20037;-94
2023/07/25 01:16:17;;;;;;;3.33;1.45;;;;;;;;;;5046786;28;20045;-93
2023/07/25 01:18:44;;;;;;;4.82;2.05;;;;;;;;;;5020441;28;20103;-92
2023/07/25 01:21:10;;;;;;;3.03;1.70;;;;;;;;;;5037468;28;20048;-92
2023/07/25 01:23:37;;;;;;;2.30;1.35;;;;;;;;;;5039581;28;20441;-92
2023/07/25 01:26:03;;;;;;;2.53;1.65;;;;;;;;;;5058337;28;20120;-93
2023/07/25 01:28:29;;;;;;;3.20;1.73;;;;;;;;;;5043299;28;20046;-93
2023/07/25 01:30:56;;;;;;;3.70;1.70;;;;;;;;;;5033011;28;20592;-93
2023/07/25 01:33:22;;;;;;;2.60;1.48;;;;;;;;;;5034668;28;20526;-93
2023/07/25 01:35:48;;;;;;;7.35;2.00;;;;;;;;;;5039427;28;20045;-93
2023/07/25 01:38:14;;;;;;;2.10;1.77;;;;;;;;;;5041936;28;20049;-93
2023/07/25 01:40:41;;;;;;;4.10;2.08;;;;;;;;;;5015702;28;20052;-93
2023/07/25 01:43:07;;;;;;;5.18;1.77;;;;;;;;;;5033098;28;20051;-93
2023/07/25 01:45:33;;;;;;;5.05;1.83;;;;;;;;;;5034713;28;20585;-93
2023/07/25 01:48:00;;;;;;;3.08;1.75;;;;;;;;;;5046280;28;20478;-93
2023/07/25 01:50:26;;;;;;;3.30;1.85;;;;;;;;;;5033848;28;20065;-93
2023/07/25 01:52:52;;;;;;;3.78;2.13;;;;;;;;;;5034479;28;20113;-92
2023/07/25 01:55:18;;;;;;;5.05;2.10;;;;;;;;;;5024116;28;20085;-93
2023/07/25 01:57:44;;;;;;;2.55;1.83;;;;;;;;;;5002549;28;20067;-92
2023/07/25 02:00:11;;;;;;;6.18;1.70;;;;;;;;;;5037052;28;20077;-92
2023/07/25 02:02:37;;;;;;;4.32;1.83;;;;;;;;;;5035229;28;20052;-93
2023/07/25 02:05:03;;;;;;;3.47;1.80;;;;;;;;;;5020972;28;20382;-93
2023/07/25 02:07:29;;;;;;;4.32;1.85;;;;;;;;;;5029663;28;20044;-92
2023/07/25 02:09:55;;;;;;;3.17;1.90;;;;;;;;;;5019624;28;20340;-92
2023/07/25 02:12:22;;;;;;;4.57;2.15;;;;;;;;;;5035919;28;20033;-93
2023/07/25 02:14:48;;;;;;;3.17;1.50;;;;;;;;;;5038179;28;20033;-92
2023/07/25 02:17:14;;;;;;;3.22;2.00;;;;;;;;;;5035615;28;20472;-92
2023/07/25 02:19:40;;;;;;;4.38;2.08;;;;;;;;;;5032788;28;20048;-92
2023/07/25 02:22:06;;;;;;;2.28;1.75;;;;;;;;;;5034246;28;20099;-93
2023/07/25 02:24:33;;;;;;;3.97;2.42;;;;;;;;;;5027500;28;20138;-92
2023/07/25 02:26:59;;;;;;;3.88;1.80;;;;;;;;;;5026099;28;20053;-92
2023/07/25 02:29:25;;;;;;;4.18;2.10;;;;;;;;;;5038600;28;20053;-92
2023/07/25 02:31:51;;;;;;;5.97;2.25;;;;;;;;;;5019878;28;20041;-92
2023/07/25 02:34:17;;;;;;;3.15;1.92;;;;;;;;;;5040789;28;20049;-93
2023/07/25 02:36:43;;;;;;;2.45;1.60;;;;;;;;;;5047786;28;20107;-93
2023/07/25 02:39:09;;;;;;;3.08;1.63;;;;;;;;;;5029611;28;20429;-92
2023/07/25 02:41:35;;;;;;;3.63;2.25;;;;;;;;;;5043104;28;20041;-92
2023/07/25 02:44:03;;;;;;;5.85;1.73;;;;;;;;;;5038970;28;20045;-92
2023/07/25 02:46:30;;;;;;;3.85;1.55;;;;;;;;;;5035858;28;20061;-92
2023/07/25 02:48:55;;;;;;;2.03;1.70;;;;;;;;;;5050589;28;20103;-93
2023/07/25 02:51:21;;;;;;;3.85;2.08;;;;;;;;;;5038620;28;20041;-93
2023/07/25 02:53:47;;;;;;;2.28;1.75;;;;;;;;;;5027878;28;20076;-93
2023/07/25 02:56:13;;;;;;;3.80;1.85;;;;;;;;;;5012117;28;21468;-92
2023/07/25 02:58:39;;;;;;;4.50;2.03;;;;;;;;;;5026273;28;20125;-93
2023/07/25 03:01:05;;;;;;;4.10;2.05;;;;;;;;;;5021110;28;20103;-92
2023/07/25 03:03:31;;;;;;;2.30;1.80;;;;;;;;;;5017011;28;20405;-92
2023/07/25 03:05:57;;;;;;;3.20;2.08;;;;;;;;;;5056382;28;20049;-93
2023/07/25 03:08:24;;;;;;;3.10;1.98;;;;;;;;;;5037380;28;20048;-94
2023/07/25 03:10:50;;;;;;;4.55;1.98;;;;;;;;;;5036922;28;20045;-94
2023/07/25 03:13:16;;;;;;;3.55;2.00;;;;;;;;;;5038737;28;20052;-92
2023/07/25 03:15:42;;;;;;;3.38;1.85;;;;;;;;;;5046333;28;20044;-90
2023/07/25 03:18:08;;;;;;;4.55;1.92;;;;;;;;;;5031255;28;20038;-94
2023/07/25 03:20:34;;;;;;;2.25;1.58;;;;;;;;;;5053083;28;20049;-94
2023/07/25 03:23:00;;;;;;;3.78;2.33;;;;;;;;;;5051228;28;21937;-94
2023/07/25 03:25:26;;;;;;;3.90;1.65;;;;;;;;;;5030956;28;20097;-95
2023/07/25 03:27:52;;;;;;;3.58;2.17;;;;;;;;;;5072916;28;20118;-95
2023/07/25 03:30:18;;;;;;;4.35;2.30;;;;;;;;;;5023168;28;20046;-95
2023/07/25 03:32:44;;;;;;;4.43;2.00;;;;;;;;;;5038429;28;20061;-95
2023/07/25 03:35:10;;;;;;;4.63;1.75;;;;;;;;;;5055027;28;20068;-95
2023/07/25 03:37:36;;;;;;;1.95;1.60;;;;;;;;;;5018693;28;20087;-95
2023/07/25 03:40:02;;;;;;;3.58;2.15;;;;;;;;;;5049322;28;20388;-95
2023/07/25 03:42:28;;;;;;;5.28;1.95;;;;;;;;;;5048824;28;20028;-95
2023/07/25 03:44:54;;;;;;;5.15;2.30;;;;;;;;;;5027768;28;20049;-93
2023/07/25 03:47:20;;;;;;;5.13;1.92;;;;;;;;;;5018604;28;20048;-92
2023/07/25 03:49:47;;;;;;;4.97;2.08;;;;;;;;;;5037754;28;20127;-96
2023/07/25 03:52:13;;;;;;;3.17;1.60;;;;;;;;;;5044055;28;20045;-94
2023/07/25 03:54:39;;;;;;;4.70;2.30;;;;;;;;;;5040027;28;20505;-95
2023/07/25 03:57:05;;;;;;;4.13;2.03;;;;;;;;;;5026281;28;20151;-96
2023/07/25 03:59:31;;;;;;;3.80;1.90;;;;;;;;;;5051888;28;20049;-95
2023/07/25 04:01:57;;;;;;;3.67;2.80;;;;;;;;;;5045187;28;20092;-95
2023/07/25 04:04:23;;;;;;;3.80;1.95;;;;;;;;;;5048705;28;20048;-95
2023/07/25 04:06:50;;;;;;;3.40;2.03;;;;;;;;;;5053997;28;20443;-94
2023/07/25 04:09:17;;;;;;;4.55;1.95;;;;;;;;;;5024011;28;20060;-92
2023/07/25 04:11:43;;;;;;;4.32;2.20;;;;;;;;;;5005569;28;20045;-94
2023/07/25 04:14:08;;;;;;;3.88;2.00;;;;;;;;;;5012436;28;20433;-94
2023/07/25 04:16:34;;;;;;;5.63;1.98;;;;;;;;;;5033793;28;20076;-95
2023/07/25 04:19:01;;;;;;;5.65;1.88;;;;;;;;;;5033861;28;20124;-95
2023/07/25 04:21:27;;;;;;;4.32;2.50;;;;;;;;;;5034057;28;20082;-94
2023/07/25 04:23:53;;;;;;;3.80;2.17;;;;;;;;;;5020759;28;20075;-95
2023/07/25 04:26:19;;;;;;;3.17;1.73;;;;;;;;;;5046939;28;20045;-94
2023/07/25 04:28:48;;;;;;;3.67;1.73;;;;;;;;;;5019212;28;20050;-94
2023/07/25 04:31:15;;;;;;;4.38;1.70;;;;;;;;;;5034664;28;20176;-93
2023/07/25 04:33:41;;;;;;;5.22;2.13;;;;;;;;;;5034086;28;20379;-93
2023/07/25 04:36:07;;;;;;;3.90;2.03;;;;;;;;;;5050936;28;20056;-94
2023/07/25 04:38:33;;;;;;;4.18;1.83;;;;;;;;;;5054679;28;20048;-93
2023/07/25 04:40:59;;;;;;;3.33;2.03;;;;;;;;;;5047819;28;20033;-95
2023/07/25 04:43:25;;;;;;;4.25;1.80;;;;;;;;;;5029268;28;20044;-93
2023/07/25 04:45:51;;;;;;;4.60;2.10;;;;;;;;;;5036029;28;20148;-94
2023/07/25 04:48:17;;;;;;;2.17;1.75;;;;;;;;;;5024461;28;20091;-94
2023/07/25 04:50:43;;;;;;;3.85;2.10;;;;;;;;;;5029854;28;20080;-94
2023/07/25 04:53:09;;;;;;;5.32;1.70;;;;;;;;;;5038419;28;20045;-94
2023/07/25 04:55:35;;;;;;;2.83;1.95;;;;;;;;;;5071921;28;20036;-94
2023/07/25 04:58:02;;;;;;;5.15;2.22;;;;;;;;;;5053014;28;20089;-94
2023/07/25 05:00:28;;;;;;;1.83;1.55;;;;;;;;;;5052116;28;20057;-94
2023/07/25 05:02:54;;;;;;;5.10;2.30;;;;;;;;;;5018543;28;20045;-94
2023/07/25 05:05:20;;;;;;;4.15;1.83;;;;;;;;;;5053532;28;20068;-94
2023/07/25 05:07:46;;;;;;;2.30;2.10;;;;;;;;;;5035574;28;20049;-95
2023/07/25 05:10:12;;;;;;;7.38;2.10;;;;;;;;;;5017300;28;20063;-93
2023/07/25 05:12:38;;;;;;;4.05;1.95;;;;;;;;;;5016010;28;20080;-93
2023/07/25 05:15:05;;;;;;;2.83;1.52;;;;;;;;;;5035104;28;20099;-95
2023/07/25 05:17:31;;;;;;;4.05;2.33;;;;;;;;;;5036123;28;20041;-96
2023/07/25 05:19:57;;;;;;;4.32;1.77;;;;;;;;;;5032869;28;20497;-85
2023/07/25 05:22:23;;;;;;;3.85;1.40;;;;;;;;;;5030592;28;20034;-85
2023/07/25 05:24:49;;;;;;;3.30;1.42;;;;;;;;;;5021249;28;20122;-83
2023/07/25 05:27:15;;;;;;;3.60;1.65;;;;;;;;;;5011660;28;20057;-84
2023/07/25 05:29:41;;;;;;;6.75;2.25;;;;;;;;;;5011688;28;20049;-85
2023/07/25 05:32:07;;;;;;;2.42;1.30;;;;;;;;;;5029989;28;20048;-84
2023/07/25 05:34:33;;;;;;;3.30;1.40;;;;;;;;;;5012129;28;20451;-86
2023/07/25 05:37:00;;;;;;;5.90;2.25;;;;;;;;;;5029290;28;20091;-86
2023/07/25 05:39:26;;;;;;;2.88;1.58;;;;;;;;;;5044306;28;20127;-86
2023/07/25 05:41:52;;;;;;;5.15;3.10;;;;;;;;;;5045293;28;20485;-86
2023/07/25 05:44:18;;;;;;;3.90;1.90;;;;;;;;;;5032084;28;20124;-88
2023/07/25 05:46:44;;;;;;;5.65;1.58;;;;;;;;;;5046804;28;20128;-87
2023/07/25 05:49:10;;;;;;;5.15;1.55;;;;;;;;;;5029216;28;20503;-88
2023/07/25 05:51:36;;;;;;;2.50;1.27;;;;;;;;;;5032692;28;20124;-90
2023/07/25 05:54:02;;;;;;;4.43;1.35;;;;;;;;;;5017204;28;20125;-83
2023/07/25 05:56:28;;;;;;;3.60;1.20;;;;;;;;;;5044849;28;20033;-83
2023/07/25 05:58:54;;;;;;;3.10;1.40;;;;;;;;;;5046663;28;20056;-83
2023/07/25 06:01:20;;;;;;;2.75;1.30;;;;;;;;;;5048241;28;20127;-83
2023/07/25 06:03:46;;;;;;;4.53;1.48;;;;;;;;;;5032657;28;20041;-82
2023/07/25 06:06:12;;;;;;;3.75;1.17;;;;;;;;;;5049217;28;20049;-83
2023/07/25 06:08:38;;;;;;;10.45;2.30;;;;;;;;;;5024193;28;20048;-82
2023/07/25 06:11:04;;;;;;;2.75;1.20;;;;;;;;;;5028438;28;20041;-82
2023/07/25 06:13:33;;;;;;;3.92;1.10;;;;;;;;;;5034603;28;20036;-83
2023/07/25 06:15:59;;;;;;;2.35;1.33;;;;;;;;;;5045200;28;20570;-82
2023/07/25 06:18:25;;;;;;;3.03;1.10;;;;;;;;;;5025215;28;20407;-87
2023/07/25 06:20:51;;;;;;;6.05;1.83;;;;;;;;;;5041378;28;20041;-88
2023/07/25 06:23:18;;;;;;;4.55;1.10;;;;;;;;;;5015011;28;20054;-86
2023/07/25 06:25:44;;;;;;;3.30;1.30;;;;;;;;;;5026759;28;20438;-84
2023/07/25 06:28:14;;;;;;;2.67;1.33;;;;;;;;;;5009598;28;20046;-84
2023/07/25 06:30:40;;;;;;;3.53;1.27;;;;;;;;;;5010541;28;20049;-87
2023/07/25 06:33:06;;;;;;;2.05;1.00;;;;;;;;;;5012310;28;20657;-88
2023/07/25 06:35:32;;;;;;;2.67;0.88;;;;;;;;;;5048817;28;20041;-86
2023/07/25 06:37:58;;;;;;;3.30;1.10;;;;;;;;;;5045983;28;20311;-85
2023/07/25 06:40:24;;;;;;;2.50;1.10;;;;;;;;;;5027078;28;20528;-87
2023/07/25 06:42:50;;;;;;;3.63;1.08;;;;;;;;;;5037193;28;20037;-85
2023/07/25 06:45:16;;;;;;;2.08;0.90;;;;;;;;;;5031115;28;20125;-86
2023/07/25 06:47:43;;;;;;;1.65;0.73;;;;;;;;;;5014113;28;20037;-87
2023/07/25 06:50:09;;;;;;;3.75;0.93;;;;;;;;;;5010639;28;20049;-86
2023/07/25 06:52:35;;;;;;;3.03;0.60;;;;;;;;;;5027807;28;20440;-85
2023/07/25 06:55:01;;;;;;;3.40;0.90;;;;;;;;;;5028655;28;20033;-87
2023/07/25 06:57:28;;;;;;;4.10;1.00;;;;;;;;;;5028796;28;20135;-86
2023/07/25 06:59:55;;;;;;;0.85;0.60;;;;;;;;;;5045022;28;20457;-86
2023/07/25 07:02:21;;;;;;;2.17;0.80;;;;;;;;;;5032758;28;20132;-87
2023/07/25 07:04:47;;;;;;;1.98;0.90;;;;;;;;;;5034774;28;20042;-88
2023/07/25 07:07:13;;;;;;;3.42;0.80;;;;;;;;;;5032617;28;20128;-87
2023/07/25 07:09:39;;;;;;;3.70;0.68;;;;;;;;;;5013601;28;20068;-87
2023/07/25 07:12:05;;;;;;;3.92;1.00;;;;;;;;;;5028964;28;20045;-86
2023/07/25 07:14:31;;;;;;;2.58;0.80;;;;;;;;;;5049895;28;20041;-88
2023/07/25 07:16:58;;;;;;;2.58;0.80;;;;;;;;;;5028330;28;20037;-87
2023/07/25 07:19:24;;;;;;;3.50;0.90;;;;;;;;;;5015726;28;20080;-93
2023/07/25 07:21:50;;;;;;;1.02;0.50;;;;;;;;;;5017573;28;20037;-93
2023/07/25 07:24:16;;;;;;;1.27;0.47;;;;;;;;;;5019362;28;20041;-95
2023/07/25 07:26:42;;;;;;;1.55;0.80;;;;;;;;;;5001586;28;20088;-91
2023/07/25 07:29:11;;;;;;;3.03;0.60;;;;;;;;;;5020016;28;20041;-93
2023/07/25 07:31:37;;;;;;;1.58;0.75;;;;;;;;;;5031244;28;20075;-89
2023/07/25 07:34:14;;;;;;;2.05;0.55;;;;;;;;;;5033216;28;20043;-89
2023/07/25 07:36:40;;;;;;;2.40;0.80;;;;;;;;;;5027636;28;20134;-88
2023/07/25 07:39:06;;;;;;;0.55;0.32;;;;;;;;;;5033541;28;20120;-90
2023/07/25 07:41:33;;;;;;;0.80;0.40;;;;;;;;;;5014050;28;20037;-85
2023/07/25 07:43:59;;;;;;;3.47;0.75;;;;;;;;;;5014933;28;20073;-87
2023/07/25 07:46:26;;;;;;;1.65;0.40;;;;;;;;;;5014966;28;20064;-86
2023/07/25 07:48:52;;;;;;;1.27;0.45;;;;;;;;;;5015005;28;20378;-84
2023/07/25 07:51:18;;;;;;;1.30;0.38;;;;;;;;;;5031749;28;20038;-88
2023/07/25 07:53:44;;;;;;;1.10;0.47;;;;;;;;;;5032048;28;20045;-86
2023/07/25 07:56:12;;;;;;;3.22;0.60;;;;;;;;;;5031074;28;20073;-86
2023/07/25 07:58:38;;;;;;;0.88;0.47;;;;;;;;;;5047234;28;20061;-88
2023/07/25 08:01:04;;;;;;;1.58;0.40;;;;;;;;;;5032314;28;20061;-87
2023/07/25 08:03:30;;;;;;;4.40;0.70;;;;;;;;;;5013698;28;20091;-87
2023/07/25 08:05:59;;;;;;;1.80;0.60;;;;;;;;;;5031638;28;20049;-88
2023/07/25 08:08:25;;;;;;;1.33;0.40;;;;;;;;;;5012502;28;20095;-92
2023/07/25 08:10:51;;;;;;;1.15;0.40;;;;;;;;;;5025998;28;20124;-86
2023/07/25 08:13:17;;;;;;;2.15;0.40;;;;;;;;;;5033513;28;20129;-86
2023/07/25 08:15:43;;;;;;;4.22;0.47;;;;;;;;;;5015232;28;20057;-89
2023/07/25 08:18:09;;;;;;;2.03;0.50;;;;;;;;;;5031971;28;20441;-90
2023/07/25 08:20:35;;;;;;;1.08;0.32;;;;;;;;;;5031953;28;20095;-88
2023/07/25 08:23:01;;;;;;;0.68;0.30;;;;;;;;;;5031170;28;20037;-86
2023/07/25 08:25:27;;;;;;;4.68;0.70;;;;;;;;;;5031338;28;20107;-88
2023/07/25 08:27:53;;;;;;;1.02;0.45;;;;;;;;;;5046406;28;20428;-87
2023/07/25 08:30:19;;;;;;;1.20;0.40;;;;;;;;;;5032721;28;20447;-85
2023/07/25 08:32:45;;;;;;;2.22;0.60;;;;;;;;;;5030487;28;20413;-87
2023/07/25 08:35:11;;;;;;;1.02;0.35;;;;;;;;;;5014741;28;20041;-80
2023/07/25 08:37:37;;;;;;;2.25;0.35;;;;;;;;;;5013989;28;20095;-85
2023/07/25 08:40:04;;;;;;;1.48;0.43;;;;;;;;;;5031673;28;20110;-95
2023/07/25 08:42:31;;;;;;;0.55;0.25;;;;;;;;;;5023134;28;20077;-94
2023/07/25 08:44:58;;;;;;;1.65;0.30;;;;;;;;;;5033251;28;20124;-92
2023/07/25 08:47:27;;;;;;;1.13;0.20;;;;;;;;;;5031552;28;20052;-93
2023/07/25 08:49:56;;;;;;;1.42;0.40;;;;;;;;;;5047749;28;20582;-95
2023/07/25 08:52:26;;;;;;;1.50;0.40;;;;;;;;;;5024531;28;20048;-92
2023/07/25 08:54:52;;;;;;;1.02;0.30;;;;;;;;;;5025293;28;20094;-88
2023/07/25 08:57:18;;;;;;;2.83;0.60;;;;;;;;;;5031771;28;20126;-89
2023/07/25 08:59:47;;;;;;;1.00;0.30;;;;;;;;;;5031289;28;20064;-89
2023/07/25 09:02:14;;;;;;;2.72;0.50;;;;;;;;;;5031886;28;20488;-89
2023/07/25 09:04:40;;;;;;;0.52;0.32;;;;;;;;;;5035258;28;20073;-93
2023/07/25 09:07:06;;;;;;;2.72;0.45;;;;;;;;;;5035291;28;20037;-93
2023/07/25 09:09:32;;;;;;;2.63;0.73;;;;;;;;;;5047592;28;20044;-95
2023/07/25 09:11:58;;;;;;;2.85;0.50;;;;;;;;;;5034357;28;20048;-89
2023/07/25 09:14:24;;;;;;;1.75;0.38;;;;;;;;;;5035028;28;20122;-93
2023/07/25 09:16:51;;;;;;;1.42;0.47;;;;;;;;;;5044228;28;20467;-91
2023/07/25 09:19:17;;;;;;;0.82;0.35;;;;;;;;;;5053018;28;20037;-90
2023/07/25 09:21:47;;;;;;;0.68;0.30;;;;;;;;;;5053596;28;20073;-94
2023/07/25 09:24:13;;;;;;;1.30;0.60;;;;;;;;;;5025879;28;20548;-92
2023/07/25 09:26:39;;;;;;;2.58;0.40;;;;;;;;;;5037423;28;20163;-91
2023/07/25 09:29:06;;;;;;;1.23;0.30;;;;;;;;;;5036519;28;20045;-92
2023/07/25 09:31:42;;;;;;;1.60;0.25;;;;;;;;;;5035746;28;20037;-94
2023/07/25 09:34:08;;;;;;;1.15;0.40;;;;;;;;;;5035118;28;20034;-93
2023/07/25 09:36:34;;;;;;;1.30;0.40;;;;;;;;;;5019272;28;20588;-93
2023/07/25 09:39:01;;;;;;;0.40;0.30;;;;;;;;;;5045674;28;20065;-93
2023/07/25 09:41:27;;;;;;;5.05;0.55;;;;;;;;;;5018577;28;20040;-93
2023/07/25 09:43:53;;;;;;;1.63;0.52;;;;;;;;;;5031500;28;20041;-91
2023/07/25 09:46:19;;;;;;;1.15;0.47;;;;;;;;;;5041866;28;20048;-93
2023/07/25 09:48:47;;;;;;;4.13;0.50;;;;;;;;;;5049198;28;20057;-91
2023/07/25 09:51:14;;;;;;;0.30;0.20;;;;;;;;;;5060553;28;20051;-90
2023/07/25 09:53:44;;;;;;;1.40;0.45;;;;;;;;;;5055408;28;20032;-92
2023/07/25 09:56:10;;;;;;;0.82;0.52;;;;;;;;;;5051685;28;20037;-92
2023/07/25 09:58:36;;;;;;;1.83;0.38;;;;;;;;;;5034741;28;20052;-92
2023/07/25 10:01:03;;;;;;;1.95;0.47;;;;;;;;;;5030027;28;20524;-91
2023/07/25 10:03:30;;;;;;;1.25;0.20;;;;;;;;;;5038245;28;20387;-90
2023/07/25 10:05:56;;;;;;;0.93;0.30;;;;;;;;;;5028400;28;20237;-91
2023/07/25 10:08:24;;;;;;;1.33;0.30;;;;;;;;;;5025877;28;20050;-93
2023/07/25 10:10:51;;;;;;;0.65;0.30;;;;;;;;;;5030688;28;20045;-92
2023/07/25 10:13:17;;;;;;;2.08;0.40;;;;;;;;;;5033784;28;20041;-92
2023/07/25 10:15:43;;;;;;;2.15;0.32;;;;;;;;;;5048762;28;20045;-95
2023/07/25 10:18:20;;;;;;;0.47;0.47;;;;;;;;;;5050712;28;20037;-90
2023/07/25 10:20:46;;;;;;;0.50;0.25;;;;;;;;;;5012447;28;20555;-92
2023/07/25 10:23:13;;;;;;;0.70;0.30;;;;;;;;;;5030555;28;20393;-89
2023/07/25 10:25:40;;;;;;;0.50;0.20;;;;;;;;;;5040626;28;20046;-94
2023/07/25 10:28:06;;;;;;;2.13;0.50;;;;;;;;;;5033171;28;20044;-94
2023/07/25 10:30:33;;;;;;;0.90;0.40;;;;;;;;;;5015287;28;20041;-92
2023/07/25 10:33:00;;;;;;;1.02;0.40;;;;;;;;;;5048403;28;20040;-92
2023/07/25 10:35:38;;;;;;;0.70;0.40;;;;;;;;;;5049391;28;20090;-89
2023/07/25 10:38:11;;;;;;;1.88;0.55;;;;;;;;;;5048915;28;20578;-94
2023/07/25 10:40:51;;;;;;;0.80;0.50;;;;;;;;;;5032082;28;20414;-90
2023/07/25 10:43:17;;;;;;;1.65;0.60;;;;;;;;;;5036508;28;20041;-91
2023/07/25 10:45:48;;;;;;;2.55;0.52;;;;;;;;;;5016327;28;20086;-89
2023/07/25 10:48:27;;;;;;;1.80;0.60;;;;;;;;;;5017322;28;20060;-91
2023/07/25 10:50:54;;;;;;;3.72;0.70;;;;;;;;;;5050729;28;20095;-90
2023/07/25 10:53:21;;;;;;;2.95;0.98;;;;;;;;;;5035038;28;20125;-94
2023/07/25 10:56:10;;;;;;;1.48;0.70;;;;;;;;;;5036109;28;20168;-89
2023/07/25 10:58:40;;;;;;;1.63;0.40;;;;;;;;;;5007443;28;20176;-89
2023/07/25 11:01:06;;;;;;;0.85;0.65;;;;;;;;;;5051892;28;20099;-91
2023/07/25 11:03:33;;;;;;;1.42;0.65;;;;;;;;;;5053416;28;20037;-89
2023/07/25 11:06:09;;;;;;;3.50;0.70;;;;;;;;;;5048119;28;20037;-92
2023/07/25 11:08:39;;;;;;;1.45;0.70;;;;;;;;;;5053899;28;20448;-92
2023/07/25 11:11:07;;;;;;;0.95;0.60;;;;;;;;;;5034430;28;20041;-91
2023/07/25 11:13:37;;;;;;;0.85;0.50;;;;;;;;;;5040827;28;20037;-90
2023/07/25 11:16:06;;;;;;;0.80;0.30;;;;;;;;;;5054612;28;20087;-87
2023/07/25 11:18:33;;;;;;;0.88;0.43;;;;;;;;;;5051509;28;20048;-90
2023/07/25 11:21:03;;;;;;;2.25;0.57;;;;;;;;;;5036052;28;20079;-90
2023/07/25 11:23:29;;;;;;;1.23;0.57;;;;;;;;;;5038231;28;20098;-90
2023/07/25 11:25:56;;;;;;;2.05;0.60;;;;;;;;;;5032929;28;20044;-87
2023/07/25 11:28:22;;;;;;;1.13;0.20;;;;;;;;;;5039445;28;20041;-87
2023/07/25 11:30:48;;;;;;;0.47;0.28;;;;;;;;;;5028475;28;20044;-90
2023/07/25 11:33:14;;;;;;;1.52;0.50;;;;;;;;;;5052204;28;20051;-88
2023/07/25 11:35:41;;;;;;;1.55;0.40;;;;;;;;;;5013321;28;20088;-89
2023/07/25 11:38:07;;;;;;;0.65;0.32;;;;;;;;;;5014033;28;20117;-90
2023/07/25 11:40:34;;;;;;;2.85;0.50;;;;;;;;;;5013037;28;20121;-94
2023/07/25 11:43:00;;;;;;;2.33;0.50;;;;;;;;;;5039823;28;20041;-95
2023/07/25 11:45:27;;;;;;;2.47;0.50;;;;;;;;;;5034989;28;20072;-91
2023/07/25 11:47:53;;;;;;;1.45;0.35;;;;;;;;;;5033431;28;20041;-89
2023/07/25 11:50:20;;;;;;;2.50;0.50;;;;;;;;;;5051847;28;20041;-86
2023/07/25 11:52:47;;;;;;;0.93;0.43;;;;;;;;;;5046379;28;20367;-86
2023/07/25 11:55:13;;;;;;;1.27;0.30;;;;;;;;;;5033195;28;20033;-92
2023/07/25 11:57:41;;;;;;;1.00;0.50;;;;;;;;;;5045208;28;21537;-90
2023/07/25 12:00:11;;;;;;;2.40;0.40;;;;;;;;;;5011875;28;20050;-91
2023/07/25 12:02:38;;;;;;;0.40;0.30;;;;;;;;;;5033484;28;20049;-86
2023/07/25 12:05:04;;;;;;;1.02;0.30;;;;;;;;;;5037142;28;20196;-89
2023/07/25 12:07:49;;;;;;;1.55;0.47;;;;;;;;;;5035367;28;20038;-90
2023/07/25 12:10:25;;;;;;;1.38;0.57;;;;;;;;;;5032178;28;20045;-91
2023/07/25 12:12:51;;;;;;;2.13;0.47;;;;;;;;;;5035071;28;20041;-89
2023/07/25 12:15:17;;;;;;;0.82;0.47;;;;;;;;;;5034577;28;20042;-90
2023/07/25 12:17:44;;;;;;;3.10;0.50;;;;;;;;;;5032446;28;20128;-91
2023/07/25 12:20:18;;;;;;;1.30;0.43;;;;;;;;;;5034474;28;20049;-90
2023/07/25 12:22:45;;;;;;;1.85;0.50;;;;;;;;;;5034724;28;20052;-94
2023/07/25 12:25:11;;;;;;;0.32;0.30;;;;;;;;;;5016116;28;20184;-86
2023/07/25 12:27:44;;;;;;;1.98;0.60;;;;;;;;;;5034199;28;20045;-92
2023/07/25 12:30:10;;;;;;;1.33;0.40;;;;;;;;;;5032643;28;20033;-92
2023/07/25 12:32:36;;;;;;;2.40;0.25;;;;;;;;;;5031447;28;20045;-89
2023/07/25 12:35:03;;;;;;;0.57;0.28;;;;;;;;;;5032511;28;20068;-95
2023/07/25 12:37:29;;;;;;;0.73;0.47;;;;;;;;;;5033419;28;20040;-92
2023/07/25 12:39:55;;;;;;;1.13;0.40;;;;;;;;;;5034652;28;20037;-90
2023/07/25 12:42:21;;;;;;;1.45;0.50;;;;;;;;;;5033244;28;20398;-91
2023/07/25 12:44:47;;;;;;;1.20;0.40;;;;;;;;;;5034461;28;20042;-92
2023/07/25 12:47:13;;;;;;;0.88;0.40;;;;;;;;;;5032452;28;20048;-90
2023/07/25 12:49:39;;;;;;;2.40;0.70;;;;;;;;;;5017112;28;20080;-92
2023/07/25 12:52:05;;;;;;;0.70;0.60;;;;;;;;;;5017209;28;20236;-95
2023/07/25 12:54:31;;;;;;;0.50;0.50;;;;;;;;;;5033825;28;20048;-90
2023/07/25 12:56:57;;;;;;;1.42;0.60;;;;;;;;;;5016053;28;20125;-93
2023/07/25 12:59:24;;;;;;;1.85;0.40;;;;;;;;;;5016870;28;20137;-94
2023/07/25 13:01:50;;;;;;;1.48;0.50;;;;;;;;;;5033239;28;20045;-88
2023/07/25 13:04:18;;;;;;;0.82;0.35;;;;;;;;;;5015528;28;20045;-93
2023/07/25 13:06:56;;;;;;;1.10;0.40;;;;;;;;;;5016314;28;20128;-95
2023/07/25 13:09:22;;;;;;;0.80;0.50;;;;;;;;;;5017763;28;20045;-87
2023/07/25 13:11:48;;;;;;;0.57;0.50;;;;;;;;;;5015836;28;20069;-94
2023/07/25 13:14:14;;;;;;;1.73;0.50;;;;;;;;;;5035750;28;20047;-94
2023/07/25 13:16:40;;;;;;;1.60;0.35;;;;;;;;;;5032007;28;20053;-92
2023/07/25 13:19:08;;;;;;;2.03;0.50;;;;;;;;;;5000190;28;20141;-91
2023/07/25 13:21:34;;;;;;;2.72;0.63;;;;;;;;;;5016020;28;20044;-94
2023/07/25 13:24:00;;;;;;;2.67;0.52;;;;;;;;;;5032696;28;20060;-88
2023/07/25 13:26:27;;;;;;;1.40;0.30;;;;;;;;;;5033418;28;20045;-90
2023/07/25 13:28:53;;;;;;;0.22;0.10;;;;;;;;;;5033933;28;20049;-93
2023/07/25 13:31:23;;;;;;;1.02;0.38;;;;;;;;;;5032317;28;20256;-92
2023/07/25 13:33:48;;;;;;;0.73;0.20;;;;;;;;;;5031766;28;20172;-90
2023/07/25 13:36:14;;;;;;;2.63;0.45;;;;;;;;;;5013727;28;20168;-91
2023/07/25 13:38:40;;;;;;;1.20;0.55;;;;;;;;;;5015940;28;20490;-92
2023/07/25 13:41:07;;;;;;;0.93;0.50;;;;;;;;;;5034172;28;20071;-87
2023/07/25 13:43:33;;;;;;;1.10;0.50;;;;;;;;;;5037861;28;20049;-89
2023/07/25 13:46:01;;;;;;;2.00;0.50;;;;;;;;;;5034031;28;20044;-94
2023/07/25 13:48:27;;;;;;;1.00;0.50;;;;;;;;;;5034495;28;20049;-91
2023/07/25 13:50:53;;;;;;;1.35;0.40;;;;;;;;;;5017202;28;20050;-93
2023/07/25 13:53:19;;;;;;;0.60;0.30;;;;;;;;;;5033953;28;20095;-91
2023/07/25 13:55:45;;;;;;;2.45;0.50;;;;;;;;;;5034304;28;20101;-94
2023/07/25 13:58:12;;;;;;;3.38;0.50;;;;;;;;;;5015906;28;20045;-95
2023/07/25 14:00:38;;;;;;;1.92;0.50;;;;;;;;;;5015667;28;20123;-94
2023/07/25 14:03:05;;;;;;;0.63;0.30;;;;;;;;;;5037531;28;20552;-95
2023/07/25 14:05:31;;;;;;;0.82;0.57;;;;;;;;;;5036799;28;20069;-95
2023/07/25 14:07:57;;;;;;;1.73;0.50;;;;;;;;;;5034246;28;20356;-92
2023/07/25 14:10:24;;;;;;;0.82;0.50;;;;;;;;;;5013872;28;20049;-94
2023/07/25 14:12:50;;;;;;;1.27;0.50;;;;;;;;;;5033050;28;20037;-90
2023/07/25 14:15:16;;;;;;;0.63;0.40;;;;;;;;;;5032310;28;20037;-92
2023/07/25 14:17:42;;;;;;;1.40;0.30;;;;;;;;;;5031337;28;20059;-91
2023/07/25 14:20:09;;;;;;;1.35;0.50;;;;;;;;;;5032671;28;20503;-93
2023/07/25 14:22:35;;;;;;;1.75;0.30;;;;;;;;;;5031228;28;20049;-92
2023/07/25 14:25:01;;;;;;;2.05;0.50;;;;;;;;;;4998694;28;20041;-87
2023/07/25 14:27:27;;;;;;;1.85;0.40;;;;;;;;;;5000221;28;20048;-95
2023/07/25 14:29:53;;;;;;;1.27;0.40;;;;;;;;;;5002822;28;20057;-93
2023/07/25 14:32:19;;;;;;;0.40;0.22;;;;;;;;;;5045751;28;20025;-91
2023/07/25 14:34:45;;;;;;;2.30;0.38;;;;;;;;;;5005642;28;20041;-93
2023/07/25 14:37:11;;;;;;;1.83;0.45;;;;;;;;;;5048046;28;20041;-87
2023/07/25 14:39:38;;;;;;;2.53;0.55;;;;;;;;;;5035844;28;20498;-95